Time;durP1;ratioP1;P1;durP2;ratioP2;P2;SDS_P1;SDS_P2;PMS_P1;PMS_P2;Temp;Humidity;BMP_temperature;BMP_pressure;BME280_temperature;BME280_humidity;BME280_pressure;Samples;Min_cycle;Max_cycle;Signal;HPM_P1;HPM_P2
2021/06/20 07:01:02;;;;;;;;;;;;;;;28.36;48.21;98375.06;5692140;23;20047;-77
2021/06/20 07:03:27;;;;;;;20.97;3.97;;;;;;;28.43;48.22;98376.16;4973179;28;19918;-76
2021/06/20 07:05:53;;;;;;;19.63;4.70;;;;;;;28.42;48.47;98392.28;4972873;28;20274;-76
2021/06/20 07:08:18;;;;;;;24.60;5.25;;;;;;;27.75;49.54;98390.75;4971600;28;20483;-77
2021/06/20 07:10:43;;;;;;;21.95;4.80;;;;;;;27.14;50.94;98402.66;4968026;28;20090;-77
2021/06/20 07:13:09;;;;;;;20.00;5.38;;;;;;;26.90;52.25;98401.22;4952537;29;20094;-77
2021/06/20 07:15:34;;;;;;;28.05;4.80;;;;;;;26.57;54.39;98393.63;4953960;28;20062;-78
2021/06/20 07:17:59;;;;;;;21.60;5.97;;;;;;;26.29;56.65;98393.41;4953373;28;20023;-77
2021/06/20 07:20:25;;;;;;;21.52;5.30;;;;;;;25.82;58.47;98379.84;4956487;28;20538;-77
2021/06/20 07:22:50;;;;;;;27.95;5.80;;;;;;;25.87;59.06;98380.31;4957203;28;20023;-77
2021/06/20 07:25:19;;;;;;;27.77;5.72;;;;;;;25.75;58.84;98380.47;4957037;28;20042;-77
2021/06/20 07:27:45;;;;;;;30.17;6.20;;;;;;;25.73;60.00;98380.63;4956857;28;20035;-77
2021/06/20 07:30:14;;;;;;;23.42;6.18;;;;;;;25.62;60.14;98380.69;4956537;28;20098;-78
2021/06/20 07:32:41;;;;;;;26.05;5.53;;;;;;;25.50;60.55;98381.75;4943363;28;20485;-77
2021/06/20 07:35:08;;;;;;;23.58;6.50;;;;;;;25.36;60.00;98370.50;4959741;28;20045;-77
2021/06/20 07:37:34;;;;;;;19.30;5.18;;;;;;;25.24;60.34;98376.88;4956586;28;20027;-77
2021/06/20 07:39:59;;;;;;;24.38;5.85;;;;;;;25.05;61.89;98387.31;4956645;28;20031;-77
2021/06/20 07:42:24;;;;;;;18.30;5.15;;;;;;;25.07;62.21;98385.38;4956351;28;20392;-77
2021/06/20 07:44:50;;;;;;;18.95;4.88;;;;;;;25.21;61.96;98387.72;4956451;28;20464;-76
2021/06/20 07:47:16;;;;;;;21.08;5.43;;;;;;;25.40;61.07;98380.88;4958803;28;20027;-76
2021/06/20 07:49:41;;;;;;;25.35;6.35;;;;;;;25.19;61.40;98381.72;4956326;28;20030;-76
2021/06/20 07:52:07;;;;;;;24.85;5.00;;;;;;;25.32;60.98;98379.69;4943372;28;20476;-76
2021/06/20 07:54:32;;;;;;;18.98;5.22;;;;;;;25.15;62.19;98388.25;4947884;29;20110;-77
2021/06/20 07:56:57;;;;;;;21.42;5.55;;;;;;;25.40;61.75;98387.00;4945013;28;20163;-77
2021/06/20 07:59:23;;;;;;;13.38;4.80;;;;;;;25.07;62.16;98390.69;4943213;29;20392;-76
2021/06/20 08:01:48;;;;;;;16.75;4.72;;;;;;;25.04;62.31;98385.59;4945034;28;20170;-76
2021/06/20 08:04:13;;;;;;;25.92;6.05;;;;;;;24.97;63.75;98376.50;4945392;28;20101;-76
2021/06/20 08:06:39;;;;;;;22.40;5.40;;;;;;;24.99;63.26;98377.19;4943116;28;20031;-76
2021/06/20 08:09:05;;;;;;;23.85;5.05;;;;;;;24.77;63.00;98367.56;4946704;28;20039;-76
2021/06/20 08:11:32;;;;;;;15.65;5.18;;;;;;;24.30;64.88;98362.47;4944234;28;20512;-76
2021/06/20 08:13:58;;;;;;;20.23;5.13;;;;;;;24.29;65.60;98346.72;4947426;29;20035;-76
2021/06/20 08:16:24;;;;;;;19.25;4.82;;;;;;;24.52;65.55;98358.13;4947543;29;20031;-77
2021/06/20 08:18:49;;;;;;;25.85;5.50;;;;;;;24.30;65.92;98345.75;4941672;29;20027;-77
2021/06/20 08:21:16;;;;;;;16.63;5.10;;;;;;;24.78;65.68;98340.91;4944420;28;20034;-78
2021/06/20 08:23:41;;;;;;;22.48;4.57;;;;;;;24.91;65.76;98348.69;4944215;28;20031;-77
2021/06/20 08:26:06;;;;;;;13.70;4.35;;;;;;;25.27;63.87;98338.63;4947326;28;20066;-77
2021/06/20 08:28:32;;;;;;;18.48;4.70;;;;;;;25.30;63.14;98336.56;4942897;28;20030;-77
2021/06/20 08:30:58;;;;;;;19.95;4.82;;;;;;;25.08;63.17;98339.34;4944407;28;20077;-77
2021/06/20 08:33:24;;;;;;;15.95;4.80;;;;;;;25.17;63.66;98333.25;4899726;28;20043;-76
2021/06/20 08:35:49;;;;;;;19.15;6.10;;;;;;;25.92;61.82;98328.59;4947412;28;20041;-77
2021/06/20 08:38:14;;;;;;;25.50;4.82;;;;;;;25.92;60.47;98318.84;4943577;28;20042;-76
2021/06/20 08:40:42;;;;;;;17.27;4.45;;;;;;;26.03;59.25;98315.22;4945441;28;20043;-76
2021/06/20 08:43:07;;;;;;;21.92;4.68;;;;;;;25.99;59.50;98319.13;4946809;28;20777;-76
2021/06/20 08:45:32;;;;;;;21.10;4.90;;;;;;;25.94;58.95;98319.53;4946980;28;20031;-76
2021/06/20 08:47:59;;;;;;;21.50;4.82;;;;;;;25.70;59.86;98325.16;4944082;28;20077;-76
2021/06/20 08:50:25;;;;;;;14.27;4.10;;;;;;;26.25;59.31;98320.28;4944131;28;21331;-76
2021/06/20 08:52:53;;;;;;;25.88;5.05;;;;;;;25.36;60.72;98322.75;4942018;29;20038;-76
2021/06/20 08:55:19;;;;;;;17.27;4.90;;;;;;;25.97;59.01;98321.91;4947062;28;20023;-76
2021/06/20 08:57:47;;;;;;;21.48;5.13;;;;;;;25.92;60.28;98310.00;4943545;29;20388;-77
2021/06/20 09:00:17;;;;;;;18.57;4.77;;;;;;;26.54;58.25;98311.53;4946541;28;20130;-76
2021/06/20 09:02:43;;;;;;;20.40;5.25;;;;;;;26.91;57.05;98317.81;4940990;29;20129;-77
2021/06/20 09:05:10;;;;;;;19.35;5.95;;;;;;;26.55;56.91;98321.19;4946623;29;20035;-77
2021/06/20 09:07:37;;;;;;;22.25;5.25;;;;;;;26.81;56.25;98324.94;4944483;28;20031;-77
2021/06/20 09:10:17;;;;;;;24.45;4.93;;;;;;;26.50;56.48;98323.44;4943442;29;20039;-77
2021/06/20 09:12:50;;;;;;;20.58;5.22;;;;;;;26.31;57.71;98311.78;4940336;28;20031;-75
2021/06/20 09:15:20;;;;;;;13.50;4.57;;;;;;;26.39;57.44;98311.91;4946517;29;20055;-75
2021/06/20 09:17:49;;;;;;;;;;;;;;;26.04;59.18;98306.28;4944459;29;20031;-75
2021/06/20 09:20:15;;;;;;;16.58;3.90;;;;;;;26.74;57.39;98315.88;4943548;28;19961;-75
2021/06/20 09:22:40;;;;;;;16.90;4.38;;;;;;;26.91;56.29;98317.81;4941652;29;20035;-75
2021/06/20 09:25:09;;;;;;;21.00;4.93;;;;;;;27.17;54.97;98311.91;4946509;28;20039;-76
2021/06/20 09:27:34;;;;;;;21.88;5.82;;;;;;;27.36;54.24;98311.84;4944203;28;20122;-75
2021/06/20 09:30:10;;;;;;;25.58;5.80;;;;;;;26.79;56.43;98303.00;4943064;28;20126;-75
2021/06/20 09:32:37;;;;;;;19.33;5.30;;;;;;;25.62;60.22;98301.06;4941617;29;20412;-75
2021/06/20 09:35:04;;;;;;;24.10;5.53;;;;;;;26.15;58.72;98298.19;4946039;29;20034;-74
2021/06/20 09:37:29;;;;;;;15.68;4.68;;;;;;;26.95;56.88;98298.91;4944252;29;20035;-81
2021/06/20 09:39:54;;;;;;;23.05;4.30;;;;;;;26.64;56.06;98310.56;4945426;29;20043;-77
2021/06/20 09:42:20;;;;;;;19.25;5.05;;;;;;;26.63;56.15;98313.34;4943534;28;20034;-74
2021/06/20 09:44:53;;;;;;;18.95;4.75;;;;;;;26.29;57.07;98297.78;4945875;28;20031;-74
2021/06/20 09:47:23;;;;;;;13.57;4.53;;;;;;;26.66;56.58;98305.09;4945984;28;20042;-73
2021/06/20 09:49:53;;;;;;;22.10;5.30;;;;;;;27.02;56.52;98306.16;4945664;28;20034;-75
2021/06/20 09:52:25;;;;;;;17.92;4.60;;;;;;;27.46;53.62;98297.66;4940375;28;20031;-74
2021/06/20 09:54:56;;;;;;;17.35;4.90;;;;;;;27.24;54.12;98296.22;4944865;28;20023;-75
2021/06/20 09:57:21;;;;;;;22.58;4.40;;;;;;;26.93;55.37;98301.69;4945555;29;20062;-75
2021/06/20 10:00:14;;;;;;;18.25;5.13;;;;;;;27.51;54.46;98292.75;4945252;29;20090;-75
2021/06/20 10:02:40;;;;;;;20.63;4.00;;;;;;;27.56;53.36;98294.00;4935646;28;20106;-75
2021/06/20 10:05:07;;;;;;;16.75;4.30;;;;;;;27.87;51.25;98283.91;4943474;28;20031;-75
2021/06/20 10:07:33;;;;;;;20.17;4.03;;;;;;;28.09;51.39;98292.47;4944311;28;20122;-74
2021/06/20 10:10:00;;;;;;;24.00;4.50;;;;;;;28.13;51.14;98285.84;4939434;29;20038;-75
2021/06/20 10:12:27;;;;;;;16.60;4.60;;;;;;;27.71;53.21;98282.88;4944821;28;20031;-74
2021/06/20 10:14:55;;;;;;;16.73;4.28;;;;;;;27.40;52.25;98293.78;4945401;29;20031;-75
2021/06/20 10:17:33;;;;;;;17.65;3.85;;;;;;;28.00;50.67;98285.41;4945280;28;21045;-74
2021/06/20 10:20:01;;;;;;;17.23;4.32;;;;;;;28.08;50.42;98290.78;4943762;28;20027;-74
2021/06/20 10:22:35;;;;;;;17.33;5.82;;;;;;;28.22;51.31;98284.94;4943984;28;21351;-74
2021/06/20 10:25:02;;;;;;;14.98;3.72;;;;;;;28.22;49.06;98276.97;4945171;28;20046;-75
2021/06/20 10:27:44;;;;;;;24.75;3.88;;;;;;;27.97;50.61;98277.69;4942361;29;20174;-72
2021/06/20 10:30:21;;;;;;;18.95;4.25;;;;;;;27.91;49.99;98268.50;4945262;28;20027;-73
2021/06/20 10:32:49;;;;;;;14.85;3.33;;;;;;;28.64;49.47;98260.38;4943754;29;20500;-72
2021/06/20 10:35:17;;;;;;;15.10;3.78;;;;;;;28.79;48.96;98253.50;4945254;29;20031;-73
2021/06/20 10:37:43;;;;;;;12.73;4.35;;;;;;;28.89;48.42;98248.06;4943077;28;21056;-73
2021/06/20 10:40:18;;;;;;;21.23;4.15;;;;;;;29.12;48.41;98243.91;4943770;29;20039;-73
2021/06/20 10:42:44;;;;;;;17.88;3.60;;;;;;;28.77;48.49;98238.63;4944094;28;20070;-72
2021/06/20 10:45:10;;;;;;;19.80;4.32;;;;;;;28.73;48.57;98232.78;4941584;29;20804;-72
2021/06/20 10:47:39;;;;;;;12.90;4.20;;;;;;;28.01;50.72;98242.63;4945168;29;20031;-72
2021/06/20 10:50:07;;;;;;;12.10;3.67;;;;;;;28.62;49.58;98230.34;4943941;29;20033;-72
2021/06/20 10:52:33;;;;;;;18.05;4.05;;;;;;;28.25;49.49;98226.03;4943069;28;20054;-73
2021/06/20 10:55:09;;;;;;;15.63;3.90;;;;;;;28.25;49.96;98219.88;4948867;29;20039;-72
2021/06/20 10:57:46;;;;;;;20.40;4.40;;;;;;;28.04;49.85;98209.50;4945396;28;20169;-72
2021/06/20 11:00:24;;;;;;;15.07;3.85;;;;;;;27.85;51.78;98211.34;4947595;28;20054;-72
2021/06/20 11:02:50;;;;;;;16.27;4.80;;;;;;;28.15;51.09;98214.63;4947316;29;20062;-72
2021/06/20 11:05:24;;;;;;;17.75;4.53;;;;;;;27.64;51.08;98216.06;4945515;28;20074;-72
2021/06/20 11:07:50;;;;;;;22.65;4.22;;;;;;;27.14;52.71;98208.47;4947173;28;20031;-75
2021/06/20 11:10:23;;;;;;;15.35;3.60;;;;;;;27.39;52.68;98205.13;4945770;28;20098;-72
2021/06/20 11:12:56;;;;;;;21.20;4.35;;;;;;;27.69;51.79;98200.47;4943490;29;20038;-72
2021/06/20 11:15:29;;;;;;;18.20;4.82;;;;;;;28.23;51.15;98201.34;4948505;29;20113;-73
2021/06/20 11:18:08;;;;;;;21.30;4.32;;;;;;;28.78;49.18;98209.16;4944560;29;20031;-73
2021/06/20 11:20:33;;;;;;;;;;;;;;;29.43;49.26;98206.84;4948536;28;20035;-76
2021/06/20 11:22:59;;;;;;;17.95;4.88;;;;;;;29.37;48.88;98209.31;4946659;29;20343;-72
2021/06/20 11:25:26;;;;;;;18.55;4.85;;;;;;;29.02;48.77;98205.00;4945404;28;20073;-70
2021/06/20 11:27:51;;;;;;;20.73;4.45;;;;;;;29.17;48.38;98208.75;4945614;28;20031;-69
2021/06/20 11:30:18;;;;;;;19.35;3.97;;;;;;;28.48;49.96;98206.91;4947252;28;20094;-69
2021/06/20 11:32:43;;;;;;;30.15;4.90;;;;;;;28.00;51.32;98208.16;4947953;29;20441;-69
2021/06/20 11:35:12;;;;;;;24.35;4.13;;;;;;;28.81;49.49;98198.16;4948222;29;20035;-69
2021/06/20 11:37:41;;;;;;;19.30;4.03;;;;;;;29.45;48.41;98202.19;4945703;28;20118;-69
2021/06/20 11:40:09;;;;;;;15.93;3.60;;;;;;;30.73;44.01;98197.41;4948262;28;20043;-70
2021/06/20 11:42:38;;;;;;;26.55;6.45;;;;;;;31.70;41.64;98184.69;4947094;28;20035;-69
2021/06/20 11:45:05;;;;;;;20.63;3.65;;;;;;;31.90;42.38;98180.56;4948181;28;21511;-73
2021/06/20 11:47:33;;;;;;;20.17;4.35;;;;;;;31.10;42.97;98182.59;4942007;29;20039;-72
2021/06/20 11:50:15;;;;;;;18.92;4.20;;;;;;;31.52;40.98;98171.53;4946261;29;20038;-72
2021/06/20 11:52:50;;;;;;;17.90;4.43;;;;;;;31.84;41.11;98173.25;4946573;29;20030;-72
2021/06/20 11:55:21;;;;;;;19.60;4.47;;;;;;;31.17;41.66;98170.19;4947888;29;20035;-73
2021/06/20 11:57:48;;;;;;;22.10;4.65;;;;;;;30.78;43.46;98164.78;4941839;29;21231;-73
2021/06/20 12:00:22;;;;;;;23.75;3.97;;;;;;;30.82;42.83;98158.94;4947461;29;20078;-72
2021/06/20 12:03:19;;;;;;;22.83;4.85;;;;;;;31.76;40.99;98146.47;4945915;28;20024;-73
2021/06/20 12:05:46;;;;;;;20.35;7.15;;;;;;;31.17;41.02;98135.38;4946196;28;20053;-72
2021/06/20 12:08:13;;;;;;;30.35;5.35;;;;;;;30.92;42.69;98138.16;4946046;28;21327;-72
2021/06/20 12:10:42;;;;;;;21.83;5.25;;;;;;;30.76;43.06;98138.22;4947313;28;20507;-72
2021/06/20 12:13:08;;;;;;;21.40;4.13;;;;;;;31.01;41.46;98135.47;4943813;29;20522;-73
2021/06/20 12:15:36;;;;;;;19.75;4.38;;;;;;;30.50;41.91;98134.88;4947553;28;20035;-73
2021/06/20 12:18:09;;;;;;;29.67;4.40;;;;;;;31.45;39.88;98131.25;4942779;29;20040;-73
2021/06/20 12:20:38;;;;;;;19.38;4.18;;;;;;;31.08;41.62;98131.91;4944430;28;20031;-73
2021/06/20 12:23:09;;;;;;;20.30;4.45;;;;;;;31.55;39.81;98127.53;4947456;29;20061;-73
2021/06/20 12:25:45;;;;;;;23.63;4.90;;;;;;;31.62;38.72;98120.44;4946294;29;20035;-73
2021/06/20 12:28:15;;;;;;;24.55;4.45;;;;;;;31.74;38.83;98117.16;4947214;29;20038;-74
2021/06/20 12:30:42;;;;;;;26.77;5.45;;;;;;;30.46;41.28;98111.19;4946068;28;20090;-74
2021/06/20 12:33:10;;;;;;;21.08;4.45;;;;;;;31.19;40.37;98111.97;4941316;28;20023;-74
2021/06/20 12:35:35;;;;;;;22.48;4.82;;;;;;;31.03;37.92;98102.16;4941054;28;20078;-74
2021/06/20 12:38:00;;;;;;;24.33;4.65;;;;;;;31.04;39.31;98092.28;4943917;28;20042;-72
2021/06/20 12:40:28;;;;;;;26.52;4.28;;;;;;;30.43;38.76;98090.13;4946248;28;20709;-73
2021/06/20 12:42:57;;;;;;;23.20;4.78;;;;;;;30.14;38.14;98081.81;4947330;29;20390;-73
2021/06/20 12:45:35;;;;;;;30.35;5.20;;;;;;;30.27;36.76;98070.59;4946612;29;20166;-73
2021/06/20 12:48:20;;;;;;;22.80;4.93;;;;;;;30.46;34.56;98068.38;4946799;29;20033;-73
2021/06/20 12:50:54;;;;;;;33.58;4.55;;;;;;;30.96;34.02;98048.50;4946528;28;20043;-73
2021/06/20 12:53:50;;;;;;;32.53;4.55;;;;;;;30.67;35.10;98050.94;4947038;28;20870;-73
2021/06/20 12:56:26;;;;;;;26.48;5.20;;;;;;;30.90;35.87;98035.81;4940702;28;20603;-73
2021/06/20 12:58:59;;;;;;;33.63;5.30;;;;;;;30.65;37.02;98034.22;4947062;29;20404;-73
2021/06/20 13:01:24;;;;;;;33.20;4.93;;;;;;;30.83;37.18;98026.81;4939063;29;20041;-73
2021/06/20 13:03:50;;;;;;;34.55;5.18;;;;;;;30.78;35.88;98013.13;4940845;28;20031;-73
2021/06/20 13:06:16;;;;;;;32.45;4.68;;;;;;;31.05;35.53;98019.03;4946571;29;21537;-73
2021/06/20 13:08:41;;;;;;;34.55;4.93;;;;;;;31.28;35.45;98013.72;4945167;29;20078;-73
2021/06/20 13:11:06;;;;;;;33.28;4.88;;;;;;;31.06;36.06;98012.66;4944187;28;20154;-73
2021/06/20 13:13:32;;;;;;;40.55;6.45;;;;;;;30.18;38.23;98013.66;4940598;29;20117;-72
2021/06/20 13:15:58;;;;;;;29.98;5.45;;;;;;;30.06;38.85;98004.28;4996542;23;20121;-77
2021/06/20 13:18:24;;;;;;;20.65;4.60;;;;;;;30.40;38.92;98002.22;4964076;28;20030;-74
2021/06/20 13:20:50;;;;;;;25.90;5.93;;;;;;;30.59;38.27;98005.50;4965451;28;20169;-74
2021/06/20 13:23:15;;;;;;;40.90;8.55;;;;;;;31.42;36.63;98005.72;4965562;28;20110;-74
2021/06/20 13:25:41;;;;;;;44.78;7.57;;;;;;;31.03;37.05;98010.31;4977654;28;20083;-74
2021/06/20 13:28:08;;;;;;;29.25;6.30;;;;;;;30.84;36.97;98001.72;4984763;28;20058;-74
2021/06/20 13:30:34;;;;;;;25.48;5.18;;;;;;;30.92;38.14;97992.84;4984817;28;20054;-74
2021/06/20 13:32:59;;;;;;;30.77;6.22;;;;;;;31.60;35.91;97991.22;4983424;28;20060;-74
2021/06/20 13:35:26;;;;;;;34.45;5.95;;;;;;;31.86;34.98;97993.50;4984689;28;20030;-74
2021/06/20 13:37:51;;;;;;;35.33;6.15;;;;;;;32.21;35.12;97995.50;4984529;28;20034;-75
2021/06/20 13:40:19;;;;;;;35.15;6.05;;;;;;;32.20;34.27;97993.00;4984532;28;20037;-74
2021/06/20 13:42:46;;;;;;;41.42;5.85;;;;;;;32.19;34.63;98007.41;4984620;28;20027;-74
2021/06/20 13:45:15;;;;;;;40.22;5.65;;;;;;;31.90;34.94;97998.31;4984381;28;20034;-74
2021/06/20 13:47:40;;;;;;;32.53;6.18;;;;;;;31.53;34.76;97990.28;4984422;28;20030;-74
2021/06/20 13:50:07;;;;;;;48.08;6.20;;;;;;;31.74;34.49;97990.41;4984663;28;20549;-78
2021/06/20 13:52:32;;;;;;;33.67;6.90;;;;;;;31.44;34.95;97987.66;4984372;28;20044;-78
2021/06/20 13:55:04;;;;;;;44.20;6.85;;;;;;;31.52;34.24;97986.75;4984613;28;20084;-78
2021/06/20 13:57:29;;;;;;;45.03;7.00;;;;;;;32.23;33.73;97971.19;4984300;28;20026;-74
2021/06/20 13:59:54;;;;;;;44.80;6.45;;;;;;;31.88;34.66;97968.22;4984350;28;20036;-74
2021/06/20 14:02:21;;;;;;;41.67;6.65;;;;;;;32.33;33.79;97961.00;4984314;28;20033;-73
2021/06/20 14:04:46;;;;;;;36.58;6.20;;;;;;;32.20;34.74;97958.13;4982826;28;20487;-73
2021/06/20 14:07:12;;;;;;;43.63;6.40;;;;;;;32.06;34.47;97956.28;4983822;28;20031;-76
2021/06/20 14:09:38;;;;;;;31.63;6.43;;;;;;;31.29;35.61;97951.97;4984431;28;20077;-76
2021/06/20 14:12:04;;;;;;;45.38;6.60;;;;;;;31.16;37.42;97949.03;4984296;28;20465;-76
2021/06/20 14:14:29;;;;;;;51.65;8.50;;;;;;;30.43;38.34;97939.56;4983793;28;20032;-76
2021/06/20 14:16:54;;;;;;;32.13;6.72;;;;;;;30.39;38.36;97928.38;4983937;28;20030;-75
2021/06/20 14:19:20;;;;;;;37.40;6.20;;;;;;;30.50;37.80;97918.28;4983984;28;20163;-75
2021/06/20 14:21:47;;;;;;;39.58;6.88;;;;;;;30.65;38.74;97911.19;4983948;28;20065;-75
2021/06/20 14:24:12;;;;;;;31.15;7.22;;;;;;;30.63;37.70;97910.53;4983905;28;20037;-76
2021/06/20 14:26:38;;;;;;;38.95;6.43;;;;;;;30.41;38.34;97915.69;4983855;28;20027;-75
2021/06/20 14:29:05;;;;;;;41.42;6.57;;;;;;;30.44;38.45;97914.47;4983429;28;20034;-75
2021/06/20 14:31:30;;;;;;;32.15;6.47;;;;;;;30.40;37.39;97924.69;4983948;28;20168;-75
2021/06/20 14:33:55;;;;;;;38.20;6.55;;;;;;;30.72;37.34;97917.53;4982571;28;20109;-75
2021/06/20 14:36:21;;;;;;;41.45;7.47;;;;;;;30.56;37.95;97928.28;4983615;28;20037;-76
2021/06/20 14:38:47;;;;;;;37.55;6.55;;;;;;;30.82;38.12;97928.84;4983760;28;20489;-75
2021/06/20 14:41:13;;;;;;;42.65;6.00;;;;;;;30.81;36.78;97931.69;4983740;28;20483;-75
2021/06/20 14:43:39;;;;;;;34.53;6.78;;;;;;;30.65;38.02;97937.94;4983889;28;20069;-76
2021/06/20 14:46:04;;;;;;;39.00;6.93;;;;;;;30.64;37.69;97933.59;4983747;28;20032;-76
2021/06/20 14:48:30;;;;;;;37.17;6.05;;;;;;;30.82;37.11;97922.66;4983768;28;20030;-75
2021/06/20 14:50:56;;;;;;;37.78;6.88;;;;;;;31.07;36.01;97916.13;4983680;28;20475;-76
2021/06/20 14:53:21;;;;;;;35.60;6.13;;;;;;;30.87;37.66;97910.41;4983666;28;20022;-75
2021/06/20 14:55:47;;;;;;;38.00;6.95;;;;;;;30.32;37.58;97906.03;4983627;28;20498;-75
2021/06/20 14:58:12;;;;;;;54.75;6.72;;;;;;;30.25;38.49;97891.66;4983365;28;20030;-75
2021/06/20 15:00:38;;;;;;;32.03;6.03;;;;;;;30.17;37.65;97889.03;4983491;28;20030;-73
2021/06/20 15:03:04;;;;;;;36.97;6.50;;;;;;;30.59;37.25;97895.84;4983577;28;20030;-73
2021/06/20 15:05:30;;;;;;;36.95;6.88;;;;;;;30.95;37.31;97898.84;4983448;28;20057;-73
2021/06/20 15:07:55;;;;;;;35.88;6.45;;;;;;;31.40;36.36;97889.94;4983626;28;20470;-73
2021/06/20 15:10:20;;;;;;;40.08;6.55;;;;;;;31.16;36.41;97903.50;4983662;28;20050;-73
2021/06/20 15:12:46;;;;;;;37.10;8.45;;;;;;;30.81;37.30;97905.78;4983580;28;20145;-73
2021/06/20 15:15:12;;;;;;;35.67;5.90;;;;;;;31.24;37.43;97906.13;4983591;28;20374;-73
2021/06/20 15:17:37;;;;;;;39.95;6.03;;;;;;;30.80;37.92;97908.59;4983323;28;20088;-73
2021/06/20 15:20:04;;;;;;;46.67;6.45;;;;;;;30.73;38.89;97908.50;4983502;28;20497;-73
2021/06/20 15:22:29;;;;;;;35.78;6.32;;;;;;;30.52;39.35;97905.59;4983259;28;20030;-73
2021/06/20 15:24:55;;;;;;;39.13;6.32;;;;;;;30.49;40.16;97905.94;4983551;28;20030;-73
2021/06/20 15:27:20;;;;;;;40.15;6.43;;;;;;;30.70;39.69;97898.09;4983294;28;20403;-74
2021/06/20 15:29:46;;;;;;;42.33;7.50;;;;;;;30.02;40.44;97890.72;4983618;28;20030;-73
2021/06/20 15:32:17;;;;;;;34.90;7.03;;;;;;;29.97;40.55;97880.56;4983384;28;20105;-72
2021/06/20 15:34:43;;;;;;;46.17;6.85;;;;;;;30.02;40.20;97878.19;4983422;28;20495;-73
2021/06/20 15:37:13;;;;;;;34.45;6.47;;;;;;;30.18;40.00;97872.00;4983043;28;20045;-72
2021/06/20 15:39:39;;;;;;;48.35;7.53;;;;;;;30.31;40.39;97866.91;4983662;28;20514;-73
2021/06/20 15:42:05;;;;;;;37.17;6.30;;;;;;;30.16;42.29;97863.31;4986758;28;20117;-72
2021/06/20 15:44:32;;;;;;;34.78;6.03;;;;;;;30.04;42.03;97856.66;4986797;28;20399;-73
2021/06/20 15:46:59;;;;;;;51.53;7.32;;;;;;;30.01;42.37;97849.00;4986650;28;20031;-73
2021/06/20 15:49:24;;;;;;;38.22;6.45;;;;;;;29.92;42.85;97849.00;4986874;28;20026;-73
2021/06/20 15:51:50;;;;;;;42.83;7.18;;;;;;;29.96;42.75;97844.16;4986801;28;20156;-72
2021/06/20 15:54:15;;;;;;;49.47;6.47;;;;;;;29.77;43.26;97837.38;4985412;28;20023;-72
2021/06/20 15:56:40;;;;;;;30.52;6.63;;;;;;;29.71;42.77;97832.75;4986274;28;20026;-72
2021/06/20 15:59:06;;;;;;;43.22;6.80;;;;;;;29.73;42.62;97824.53;4986540;28;20042;-72
2021/06/20 16:01:31;;;;;;;48.92;6.90;;;;;;;29.84;43.34;97822.34;4985143;28;20095;-72
2021/06/20 16:03:56;;;;;;;41.05;6.72;;;;;;;29.53;44.54;97814.22;4986886;28;20034;-73
2021/06/20 16:06:22;;;;;;;37.38;6.05;;;;;;;29.61;44.94;97806.22;4986549;28;20094;-72
2021/06/20 16:08:48;;;;;;;44.28;7.75;;;;;;;29.21;45.43;97801.81;4986801;28;20590;-73
2021/06/20 16:11:14;;;;;;;40.97;6.38;;;;;;;29.26;45.70;97802.13;4986738;28;20026;-73
2021/06/20 16:13:39;;;;;;;36.88;6.35;;;;;;;29.18;45.69;97794.13;4980459;28;20046;-73
2021/06/20 16:16:05;;;;;;;38.72;7.20;;;;;;;29.06;45.66;97776.78;4983518;28;20048;-73
2021/06/20 16:18:30;;;;;;;48.08;6.30;;;;;;;28.96;44.77;97789.47;4986269;28;20113;-73
2021/06/20 16:20:56;;;;;;;42.22;6.78;;;;;;;29.01;45.15;97781.81;4984937;28;20502;-73
2021/06/20 16:23:22;;;;;;;41.72;7.18;;;;;;;29.04;43.93;97784.16;4986128;28;20033;-73
2021/06/20 16:25:47;;;;;;;34.78;6.68;;;;;;;28.76;44.03;97779.13;4986049;28;20030;-72
2021/06/20 16:28:13;;;;;;;41.33;6.15;;;;;;;28.77;44.24;97780.81;4986138;28;20033;-73
2021/06/20 16:30:39;;;;;;;39.22;7.10;;;;;;;28.79;44.65;97773.47;4986128;28;20038;-72
2021/06/20 16:33:04;;;;;;;38.90;6.90;;;;;;;28.81;45.13;97766.13;4985953;28;20035;-72
2021/06/20 16:35:29;;;;;;;31.40;7.07;;;;;;;28.66;44.89;97763.28;4985896;28;20027;-72
2021/06/20 16:37:55;;;;;;;33.40;6.55;;;;;;;28.77;46.17;97759.47;4985808;28;20030;-75
2021/06/20 16:40:21;;;;;;;34.63;7.35;;;;;;;28.83;45.53;97769.47;4985725;28;20491;-75
2021/06/20 16:42:48;;;;;;;36.33;6.60;;;;;;;28.78;45.88;97773.66;4985608;28;20030;-75
2021/06/20 16:45:14;;;;;;;37.92;6.95;;;;;;;28.39;47.95;97761.78;4985739;28;20109;-75
2021/06/20 16:47:39;;;;;;;37.45;6.82;;;;;;;28.60;46.15;97763.97;4985564;28;20030;-75
2021/06/20 16:50:06;;;;;;;42.70;6.88;;;;;;;28.48;45.66;97770.63;4985734;28;20380;-75
2021/06/20 16:52:32;;;;;;;45.83;8.20;;;;;;;28.18;46.92;97753.38;4999882;28;20399;-75
2021/06/20 16:54:57;;;;;;;35.78;6.97;;;;;;;28.18;47.26;97748.06;4984117;28;20058;-75
2021/06/20 16:57:23;;;;;;;34.78;6.03;;;;;;;28.19;47.82;97744.44;4985621;28;20026;-75
2021/06/20 16:59:48;;;;;;;46.78;7.28;;;;;;;28.26;47.23;97734.75;4985488;28;20644;-75
2021/06/20 17:02:14;;;;;;;29.98;6.68;;;;;;;28.16;47.91;97731.44;4985459;28;20396;-75
2021/06/20 17:04:39;;;;;;;46.55;7.07;;;;;;;27.95;48.46;97736.34;4983729;28;20061;-75
2021/06/20 17:07:04;;;;;;;39.83;7.60;;;;;;;27.82;48.60;97735.00;4985194;28;20053;-75
2021/06/20 17:09:30;;;;;;;43.38;7.00;;;;;;;27.82;49.25;97732.34;4985138;28;20643;-75
2021/06/20 17:11:55;;;;;;;36.92;6.65;;;;;;;27.74;49.82;97734.97;4985525;28;20724;-75
2021/06/20 17:14:20;;;;;;;45.88;6.65;;;;;;;27.47;49.12;97732.53;4985055;28;20117;-75
2021/06/20 17:16:46;;;;;;;45.50;6.97;;;;;;;27.41;49.35;97744.63;4985072;28;20026;-75
2021/06/20 17:19:11;;;;;;;35.13;6.70;;;;;;;27.39;49.88;97752.78;4985241;28;20475;-75
2021/06/20 17:21:36;;;;;;;49.35;8.10;;;;;;;27.11;49.84;97753.94;4984882;28;20032;-75
2021/06/20 17:24:02;;;;;;;39.25;7.65;;;;;;;27.12;50.86;97760.91;4984851;28;20026;-75
2021/06/20 17:26:27;;;;;;;39.28;7.60;;;;;;;27.14;50.56;97761.63;4984666;28;20022;-75
2021/06/20 17:28:53;;;;;;;46.08;7.70;;;;;;;26.86;51.04;97767.03;4983575;28;20046;-75
2021/06/20 17:31:18;;;;;;;34.10;6.93;;;;;;;26.84;52.71;97755.75;4980872;28;20030;-75
2021/06/20 17:33:44;;;;;;;49.53;7.15;;;;;;;26.71;52.71;97747.31;4984718;28;20030;-75
2021/06/20 17:36:10;;;;;;;48.55;9.10;;;;;;;26.68;54.07;97744.97;4984502;28;21344;-75
2021/06/20 17:38:35;;;;;;;38.08;6.97;;;;;;;26.53;54.46;97749.16;4984713;28;20255;-75
2021/06/20 17:41:03;;;;;;;33.47;5.90;;;;;;;26.43;55.14;97748.41;4984860;28;20034;-75
2021/06/20 17:43:29;;;;;;;37.33;6.65;;;;;;;26.36;55.74;97759.63;4984521;28;20060;-75
2021/06/20 17:45:56;;;;;;;34.05;6.53;;;;;;;26.31;54.97;97767.22;4984284;28;20034;-75
2021/06/20 17:48:22;;;;;;;33.95;6.65;;;;;;;26.25;55.13;97773.13;4984268;28;20034;-75
2021/06/20 17:50:47;;;;;;;53.55;8.20;;;;;;;26.20;55.87;97786.00;4984778;28;20129;-75
2021/06/20 17:53:12;;;;;;;43.53;7.32;;;;;;;26.17;55.91;97796.94;4984235;28;20022;-75
2021/06/20 17:55:38;;;;;;;39.75;7.25;;;;;;;26.06;57.08;97797.16;4984441;28;20506;-75
2021/06/20 17:58:03;;;;;;;45.40;8.52;;;;;;;25.65;62.63;97801.94;4984425;28;20028;-75
2021/06/20 18:00:28;;;;;;;42.80;7.32;;;;;;;25.02;64.15;97793.75;4984299;28;20026;-74
2021/06/20 18:02:54;;;;;;;55.03;7.85;;;;;;;24.54;68.56;97786.66;4983608;28;20033;-75
2021/06/20 18:05:20;;;;;;;37.83;7.38;;;;;;;24.13;71.23;97793.88;4984218;28;20038;-74
2021/06/20 18:07:48;;;;;;;60.03;8.85;;;;;;;23.88;70.93;97799.63;4983782;28;20499;-78
2021/06/20 18:10:16;;;;;;;47.77;6.70;;;;;;;23.45;76.64;97805.97;4984437;28;20026;-78
2021/06/20 18:12:41;;;;;;;41.83;7.95;;;;;;;23.00;78.87;97785.16;4984154;28;20880;-79
2021/06/20 18:15:09;;;;;;;42.35;7.43;;;;;;;22.61;79.17;97774.31;4984181;28;20036;-77
2021/06/20 18:17:34;;;;;;;55.67;8.20;;;;;;;22.31;83.60;97773.22;4983720;28;20026;-75
2021/06/20 18:19:59;;;;;;;46.35;8.88;;;;;;;22.12;85.61;97770.41;4983657;28;20034;-84
2021/06/20 18:22:25;;;;;;;48.25;8.95;;;;;;;21.89;87.09;97781.94;4982496;28;20116;-76
2021/06/20 18:24:50;;;;;;;44.67;9.63;;;;;;;21.74;88.44;97784.84;4983617;28;20038;-73
2021/06/20 18:27:16;;;;;;;45.67;10.02;;;;;;;21.92;87.91;97784.34;4983503;28;20030;-76